Terminal Aerodrome Forecast
Issued by NWS

Current Version | Previous Version | Graphics & Text | Print | Product List | Glossary On
Versions: 1 2 3 4 5 6 7 8 9 10 11 12 13 14 15 16 17 18 19 20 21 22 23 24 25 26
000
FTUS41 KRNK 200337 AAA
TAFLWB
TAF AMD
KLWB 200337Z 2004/2024 00000KT P6SM SCT045 BKN120
      TEMPO 2004/2005 3SM SHRA BR BKN045
     FM200600 00000KT 3SM BR SCT090
     FM200900 00000KT 1SM BR SCT035
     FM201300 00000KT P6SM SCT130
     FM201900 15005KT P6SM VCTS BKN050CB=

USA.gov is the U.S. government's official web portal to all federal, state and local government web resources and services.